Ulan Bator, Mongolia
Current Conditions -  °F | °C
As of 5:30 PM on Saturday 20 Dec 2014 (Local Time) from ZMUB Reporting Station
Scattered Clouds Scattered Clouds  
Wind Chill: -26°   Ceiling: Unl
Heat Index: -20°   Visibility: 6mi
Dew Point: -24°   Wind: 4mph
Humidity: 71%   Direction: NA
Pressure: 30.33"   Gusts: NA
Location:  47.92°N, 106.91°E
Report Text: ZMUB 200930Z VRB02MPS 9999 SCT100 M20/M24 Q1027 NOSIG RMK QFE661.9 66 MOP
Loading
Personal Weather Stations






























Interactive Weather Map New forecast layout! Learn more

10-Day Weather Forecast

Advertisements
Track Severe Weather on mobile